Flight Track Log - Related Links

Times and Time Zones

All times are in EDT time to prevent confusion due to time zone crossing. See the KAP720 flight status page for this flight to view local times or setup timezone preferences in your user account.

Time Position Orientation Groundspeed Altitude Reporting Facility
EDT Latitude Longitude Course Direction KTS MPH feet Rate Location/Type
Wed 05:35:15 PM 44.6072 -75.3822 68° East 154 177 3,800  Level Boston Center
Wed 05:36:15 PM 44.5850 -75.3550 139° Southeast 126 145 4,500 650 Climbing Boston Center
Wed 05:37:15 PM 44.5589 -75.3100 129° Southeast 121 139 5,100 650 Climbing Boston Center
Wed 05:38:15 PM 44.5303 -75.2853 148° Southeast 127 146 5,800 750 Climbing Boston Center
Wed 05:39:15 PM 44.4994 -75.2692 160° South 122 140 6,600 700 Climbing Boston Center
Wed 05:40:00 PM 44.7792 -75.1146 68° East  Level FlightAware Approximate
Wed 05:40:15 PM 44.4686 -75.2561 163° South 122 140 7,200  Level Boston Center
Wed 05:41:15 PM 44.4378 -75.2431 163° South 122 140 8,000 650 Climbing Boston Center
Wed 05:42:15 PM 44.4108 -75.2272 157° South 122 140 8,500 450 Climbing Boston Center
Wed 05:43:15 PM 44.3803 -75.1997 147° Southeast 122 140 8,900 300 Climbing Boston Center
Wed 05:44:15 PM 44.3475 -75.1750 152° Southeast 128 147 9,100 100 Climbing Boston Center
Wed 05:45:15 PM 44.3131 -75.1414 145° Southeast 139 160 9,100 -50 Level Boston Center
Wed 05:46:15 PM 44.2783 -75.1108 148° Southeast 145 167 9,000 -45 Descending Boston Center
Wed 05:47:27 PM 44.2436 -75.0803 148° Southeast 145 167 9,000  Level Boston Center
Wed 05:48:27 PM 44.2047 -75.0467 148° Southeast 140 161 9,000  Level Boston Center
Wed 05:49:27 PM 44.1719 -75.0192 149° Southeast 140 161 9,000  Level Boston Center
Wed 05:50:27 PM 44.1392 -74.9917 149° Southeast 140 161 9,000  Level Boston Center
Wed 05:51:27 PM 44.1086 -74.9614 145° Southeast 140 161 9,000  Level Boston Center
Wed 05:52:27 PM 44.0758 -74.9342 149° Southeast 140 161 9,000  Level Boston Center
Wed 05:53:27 PM 44.0453 -74.9067 147° Southeast 135 155 9,000  Level Boston Center
Wed 05:54:27 PM 44.0144 -74.8794 148° Southeast 135 155 9,000  Level Boston Center
Wed 05:55:27 PM 43.9839 -74.8522 147° Southeast 135 155 9,000  Level Boston Center
Wed 05:56:27 PM 43.9511 -74.8281 152° Southeast 135 155 9,000  Level Boston Center
Wed 05:57:27 PM 43.9244 -74.8039 147° Southeast 135 155 9,000  Level Boston Center
Wed 05:58:27 PM 43.8917 -74.7736 146° Southeast 135 155 9,000  Level Boston Center
Wed 05:59:27 PM 43.8589 -74.7494 152° Southeast 135 155 9,000  Level Boston Center
Wed 06:00:27 PM 43.8283 -74.7194 145° Southeast 135 155 9,000  Level Boston Center
Wed 06:01:39 PM 43.7892 -74.6864 149° Southeast 135 155 9,000  Level Boston Center
Wed 06:02:39 PM 43.7544 -74.6564 148° Southeast 135 155 9,000  Level Boston Center
Wed 06:03:39 PM 43.7236 -74.6292 147° Southeast 135 155 9,000  Level Boston Center
Wed 06:04:39 PM 43.6908 -74.6050 152° Southeast 135 155 9,000  Level Boston Center
Wed 06:05:39 PM 43.6581 -74.5781 149° Southeast 135 155 9,000  Level Boston Center
Wed 06:06:51 PM 43.6211 -74.5453 147° Southeast 135 155 9,000  Level Boston Center
Wed 06:07:51 PM 43.5903 -74.5183 148° Southeast 135 155 9,000  Level Boston Center
Wed 06:08:51 PM 43.5594 -74.4914 148° Southeast 135 155 9,000  Level Boston Center
Wed 06:09:51 PM 43.5286 -74.4647 148° Southeast 135 155 9,000  Level Boston Center
Wed 06:10:31 PM 43.5039 -74.4467 152° Southeast 132 152 9,000  Level Boston Center
Wed 06:10:51 PM 43.4958 -74.4350 134° Southeast 135 155 9,000  Level Boston Center
Wed 06:11:14 PM 43.4814 -74.4289 163° South 135 155 9,000  Level Boston Center
Wed 06:11:51 PM 43.4631 -74.4081 140° Southeast 135 155 9,000  Level Boston Center
Wed 06:12:14 PM 43.4467 -74.3961 152° Southeast 139 160 9,000  Level Boston Center
Wed 06:12:51 PM 43.4300 -74.3814 147° Southeast 135 155 9,000  Level Boston Center
Wed 06:13:09 PM 43.4197 -74.3725 148° Southeast 138 159 9,000  Level Boston Center
Wed 06:13:51 PM 43.3992 -74.3547 148° Southeast 135 155 9,000  Level Boston Center
Wed 06:14:10 PM 43.3892 -74.3428 139° Southeast 132 152 9,000  Level Boston Center
Wed 06:14:51 PM 43.3644 -74.3250 152° Southeast 135 155 9,000  Level Boston Center
Wed 06:15:16 PM 43.3500 -74.3158 155° Southeast 135 155 9,000  Level Boston Center
Wed 06:15:51 PM 43.3314 -74.2983 146° Southeast 140 161 9,000  Level Boston Center
Wed 06:16:17 PM 43.3192 -74.2894 152° Southeast 138 159 9,000  Level Boston Center
Wed 06:16:51 PM 43.2986 -74.2686 144° Southeast 140 161 9,000  Level Boston Center
Wed 06:17:12 PM 43.2883 -74.2600 149° Southeast 139 160 9,000  Level Boston Center
Wed 06:17:51 PM 43.2678 -74.2422 148° Southeast 140 161 9,000  Level Boston Center
Wed 06:18:06 PM 43.2594 -74.2333 142° Southeast 137 158 9,000  Level Boston Center
Wed 06:18:51 PM 43.2392 -74.2100 140° Southeast 134 154 9,000  Level Boston Center
Wed 06:19:07 PM 43.2308 -74.2039 152° Southeast 131 151 9,000  Level Boston Center
Wed 06:19:51 PM 43.2125 -74.1750 131° Southeast 134 154 9,000  Level Boston Center
Wed 06:20:08 PM 43.2042 -74.1692 153° Southeast 132 152 9,000 -254 Level Boston Center
Wed 06:21:02 PM 43.1797 -74.1369 136° Southeast 135 155 8,700 -524 Descending Boston Center
Wed 06:21:51 PM 43.1511 -74.1022 138° Southeast 142 163 8,100 -771 Descending Boston Center
Wed 06:22:51 PM 43.1183 -74.0586 136° Southeast 157 181 7,300 -700 Descending Boston Center
Wed 06:23:51 PM 43.0878 -74.0181 136° Southeast 157 181 6,700 -700 Descending Boston Center
Wed 06:24:51 PM 43.0547 -73.9800 140° Southeast 157 181 5,900 -750 Descending Boston Center
Wed 06:25:11 PM 43.0447 -73.9658 134° Southeast 154 177 5,700 -741 Descending Boston Center
Wed 06:26:12 PM 43.0139 -73.9253 136° Southeast 158 182 4,900 -793 Descending Boston Center
Wed 06:27:12 PM 42.9811 -73.8875 140° Southeast 159 183 4,100 -793 Descending Boston Center
Wed 06:28:13 PM 42.9397 -73.8639 157° South 159 183 3,300 -703 Descending Boston Center
Wed 06:29:20 PM 42.8961 -73.8372 156° South 147 169 2,600 -403 Descending Boston Center
Wed 06:30:27 PM 42.8567 -73.8194 162° South 130 150 2,400 -425 Descending Boston Center
Wed 06:31:27 PM 42.8236 -73.8131 172° South 119 137 1,700 -709 Descending Boston Center
Wed 06:32:34 PM 42.7839 -73.8064 173° South 116 133 900 -716 Descending Boston Center
Wed 06:34:00 PM 42.7491 -73.8020 160° South  Level Estimated
Wed 06:41:00 PM 42.7491 -73.8020 160° South  Level Estimated
Wed 06:42:00 PM 42.7491 -73.8020 160° South  Level Estimated
Wed 06:43:00 PM 42.7491 -73.8020 160° South  Level Estimated

Login

Don't have an account? Register now (free) for customized features, flight alerts, and more!